createdAt,value
2018-10-17T00:02:06.861Z,22.27
2018-10-17T00:04:35.567Z,21.87
2018-10-17T00:07:04.403Z,23.47
2018-10-17T00:09:33.437Z,22.95
2018-10-17T00:12:02.093Z,23.05
2018-10-17T00:14:31.160Z,22.58
2018-10-17T00:17:00.447Z,22.17
2018-10-17T00:19:28.936Z,22.93
2018-10-17T00:21:58.271Z,21.20
2018-10-17T00:24:26.839Z,22.00
2018-10-17T00:26:55.403Z,21.42
2018-10-17T00:29:24.012Z,23.42
2018-10-17T00:31:52.750Z,22.73
2018-10-17T00:34:21.462Z,23.18
2018-10-17T00:36:50.649Z,22.62
2018-10-17T00:39:19.338Z,21.55
2018-10-17T00:41:48.182Z,23.05
2018-10-17T00:44:16.821Z,21.37
2018-10-17T00:46:45.515Z,20.70
2018-10-17T00:49:14.248Z,21.05
2018-10-17T00:51:42.667Z,21.70
2018-10-17T00:54:11.148Z,21.60
2018-10-17T00:56:39.647Z,23.25
2018-10-17T00:59:15.790Z,23.15
2018-10-17T01:01:44.561Z,24.10
2018-10-17T01:04:13.172Z,22.30
2018-10-17T01:06:41.658Z,22.05
2018-10-17T01:09:12.534Z,22.95
2018-10-17T01:11:41.991Z,23.15
2018-10-17T01:14:10.926Z,22.00
2018-10-17T01:16:39.408Z,22.15
2018-10-17T01:19:08.092Z,21.57
2018-10-17T01:21:37.159Z,22.50
2018-10-17T01:24:06.071Z,23.02
2018-10-17T01:26:34.765Z,22.82
2018-10-17T01:29:03.361Z,23.02
2018-10-17T01:31:31.859Z,22.73
2018-10-17T01:34:00.440Z,22.77
2018-10-17T01:36:29.571Z,22.00
2018-10-17T01:38:58.676Z,21.80
2018-10-17T01:41:27.359Z,22.02
2018-10-17T01:43:55.818Z,23.30
2018-10-17T01:46:24.342Z,21.75
2018-10-17T01:48:52.796Z,21.90
2018-10-17T01:51:21.353Z,22.80
2018-10-17T01:53:49.787Z,22.70
2018-10-17T01:56:18.357Z,22.67
2018-10-17T01:58:46.944Z,21.25
2018-10-17T02:01:15.530Z,22.48
2018-10-17T02:03:44.007Z,23.27
2018-10-17T02:06:12.586Z,21.77
2018-10-17T02:08:41.167Z,21.57
2018-10-17T02:11:09.808Z,22.65
2018-10-17T02:13:38.334Z,21.75
2018-10-17T02:16:07.407Z,22.52
2018-10-17T02:18:35.899Z,20.68
2018-10-17T02:21:04.421Z,22.32
2018-10-17T02:23:32.866Z,21.37
2018-10-17T02:26:01.359Z,22.05
2018-10-17T02:28:29.845Z,21.12
2018-10-17T02:30:58.412Z,22.25
2018-10-17T02:33:27.496Z,21.87
2018-10-17T02:35:55.969Z,21.48
2018-10-17T02:38:24.442Z,20.52
2018-10-17T02:40:53.086Z,23.12
2018-10-17T02:43:21.641Z,21.17
2018-10-17T02:45:50.136Z,20.40
2018-10-17T02:48:18.807Z,21.80
2018-10-17T02:50:47.252Z,21.10
2018-10-17T02:53:15.837Z,21.35
2018-10-17T02:55:44.276Z,22.20
2018-10-17T02:58:12.795Z,21.12
2018-10-17T03:00:41.403Z,22.02
2018-10-17T03:03:10.018Z,21.52
2018-10-17T03:05:38.469Z,21.48
2018-10-17T03:08:07.000Z,20.88
2018-10-17T03:10:35.461Z,20.62
2018-10-17T03:13:04.059Z,21.23
2018-10-17T03:15:32.590Z,22.98
2018-10-17T03:18:01.184Z,20.35
2018-10-17T03:20:31.114Z,21.37
2018-10-17T03:22:59.598Z,22.55
2018-10-17T03:25:28.801Z,22.02
2018-10-17T03:27:57.415Z,21.42
2018-10-17T03:30:25.904Z,20.20
2018-10-17T03:32:54.519Z,21.82
2018-10-17T03:35:23.100Z,22.40
2018-10-17T03:37:52.415Z,21.05
2018-10-17T03:40:21.066Z,22.48
2018-10-17T03:42:49.565Z,21.02
2018-10-17T03:45:18.077Z,21.37
2018-10-17T03:47:47.462Z,21.48
2018-10-17T03:50:16.043Z,21.97
2018-10-17T03:52:44.602Z,20.65
2018-10-17T03:55:13.161Z,21.95
2018-10-17T03:57:42.533Z,21.85
2018-10-17T04:00:11.209Z,21.65
2018-10-17T04:02:39.723Z,20.62
2018-10-17T04:05:08.745Z,23.02
2018-10-17T04:07:37.333Z,21.68
2018-10-17T04:10:06.445Z,22.40
2018-10-17T04:12:35.089Z,22.70
2018-10-17T04:15:03.605Z,22.10
2018-10-17T04:17:32.187Z,22.05
2018-10-17T04:20:00.744Z,22.07
2018-10-17T04:22:29.277Z,23.22
2018-10-17T04:24:57.998Z,21.45
2018-10-17T04:27:26.725Z,22.82
2018-10-17T04:29:55.224Z,21.57
2018-10-17T04:32:23.770Z,22.87
2018-10-17T04:34:52.278Z,21.57
2018-10-17T04:37:20.776Z,20.30
2018-10-17T04:39:50.539Z,20.17
2018-10-17T04:42:19.056Z,21.62
2018-10-17T04:44:47.556Z,21.30
2018-10-17T04:47:16.852Z,22.75
2018-10-17T04:49:45.231Z,20.85
2018-10-17T04:52:13.727Z,21.42
2018-10-17T04:54:42.381Z,22.52
2018-10-17T04:57:10.979Z,20.80
2018-10-17T04:59:39.462Z,22.98
2018-10-17T05:02:08.055Z,23.12
2018-10-17T05:04:36.584Z,22.02
2018-10-17T05:07:05.376Z,22.20
2018-10-17T05:09:33.977Z,20.25
2018-10-17T05:12:02.587Z,20.70
2018-10-17T05:14:31.128Z,21.50
2018-10-17T05:16:59.649Z,20.55
2018-10-17T05:19:28.271Z,21.25
2018-10-17T05:21:56.860Z,21.55
2018-10-17T05:24:25.321Z,20.90
2018-10-17T05:26:53.883Z,20.40
2018-10-17T05:29:22.540Z,22.48
2018-10-17T05:31:51.001Z,22.62
2018-10-17T05:34:19.524Z,21.90
2018-10-17T05:36:48.069Z,20.55
2018-10-17T05:39:16.777Z,22.25
2018-10-17T05:41:45.466Z,21.80
2018-10-17T05:44:14.138Z,21.33
2018-10-17T05:46:43.125Z,21.90
2018-10-17T05:49:11.737Z,21.93
2018-10-17T05:51:40.298Z,22.80
2018-10-17T05:54:09.022Z,21.40
2018-10-17T05:56:37.688Z,22.37
2018-10-17T05:59:06.247Z,22.75
2018-10-17T06:01:35.004Z,22.22
2018-10-17T06:04:03.591Z,22.55
2018-10-17T06:06:32.449Z,21.93
2018-10-17T06:09:01.027Z,21.77
2018-10-17T06:11:29.587Z,21.35
2018-10-17T06:13:58.051Z,20.72
2018-10-17T06:16:26.923Z,23.25
2018-10-17T06:18:55.575Z,21.07
2018-10-17T06:21:24.921Z,22.80
2018-10-17T06:23:53.509Z,22.37
2018-10-17T06:26:22.641Z,22.70
2018-10-17T06:28:51.321Z,21.97
2018-10-17T06:31:19.951Z,24.85
2018-10-17T06:33:48.646Z,23.00
2018-10-17T06:36:17.146Z,22.67
2018-10-17T06:38:45.853Z,20.35
2018-10-17T06:41:14.645Z,22.07
2018-10-17T06:43:43.248Z,20.57
2018-10-17T06:46:11.968Z,21.60
2018-10-17T06:48:41.783Z,20.80
2018-10-17T06:51:10.415Z,21.07
2018-10-17T06:53:38.966Z,21.95
2018-10-17T06:56:08.092Z,21.48
2018-10-17T06:58:36.686Z,22.95
2018-10-17T07:01:05.415Z,21.05
2018-10-17T07:03:34.871Z,22.75
2018-10-17T07:06:03.494Z,21.80
2018-10-17T07:08:32.872Z,22.73
2018-10-17T07:11:01.498Z,22.55
2018-10-17T07:13:30.104Z,21.15
2018-10-17T07:15:58.648Z,20.80
2018-10-17T07:18:27.328Z,22.73
2018-10-17T07:20:56.160Z,22.50
2018-10-17T07:23:24.679Z,23.45
2018-10-17T07:25:53.593Z,23.05
2018-10-17T07:28:22.117Z,22.93
2018-10-17T07:30:50.665Z,21.80
2018-10-17T07:33:19.311Z,21.87
2018-10-17T07:35:47.962Z,23.85
2018-10-17T07:38:16.540Z,24.47
2018-10-17T07:40:45.675Z,24.43
2018-10-17T07:43:14.331Z,23.92
2018-10-17T07:45:43.706Z,23.40
2018-10-17T07:48:12.365Z,20.55
2018-10-17T07:50:41.130Z,23.57
2018-10-17T07:53:09.726Z,22.82
2018-10-17T07:55:38.274Z,25.00
2018-10-17T07:58:06.959Z,23.35
2018-10-17T08:00:35.539Z,23.42
2018-10-17T08:03:04.171Z,24.72
2018-10-17T08:05:32.775Z,28.42
2018-10-17T08:08:01.246Z,26.17
2018-10-17T08:10:29.912Z,27.82
2018-10-17T08:12:58.470Z,27.40
2018-10-17T08:15:27.009Z,25.60
2018-10-17T08:17:55.580Z,24.40
2018-10-17T08:20:24.940Z,25.02
2018-10-17T08:22:53.659Z,26.48
2018-10-17T08:25:22.188Z,24.80
2018-10-17T08:27:50.861Z,26.27
2018-10-17T08:30:19.559Z,25.92
2018-10-17T08:32:48.231Z,26.10
2018-10-17T08:35:17.026Z,24.67
2018-10-17T08:37:46.068Z,25.25
2018-10-17T08:40:14.209Z,24.07
2018-10-17T08:42:43.146Z,26.15
2018-10-17T08:45:12.464Z,27.07
2018-10-17T08:47:41.101Z,25.23
2018-10-17T08:50:09.707Z,25.52
2018-10-17T08:52:38.277Z,26.85
2018-10-17T08:55:07.175Z,24.32
2018-10-17T08:57:35.759Z,24.27
2018-10-17T09:00:04.701Z,25.25
2018-10-17T09:02:33.496Z,26.15
2018-10-17T09:05:02.910Z,26.73
2018-10-17T09:07:31.686Z,25.02
2018-10-17T09:10:00.436Z,25.82
2018-10-17T09:12:29.075Z,25.10
2018-10-17T09:14:57.938Z,24.80
2018-10-17T09:17:26.663Z,23.80
2018-10-17T09:19:55.578Z,24.63
2018-10-17T09:22:24.230Z,25.20
2018-10-17T09:24:52.800Z,23.30
2018-10-17T09:27:21.597Z,23.42
2018-10-17T09:29:50.124Z,25.10
2018-10-17T09:32:18.982Z,26.37
2018-10-17T09:34:47.713Z,23.60
2018-10-17T09:37:16.331Z,24.72
2018-10-17T09:39:45.463Z,26.35
2018-10-17T09:42:18.636Z,26.25
2018-10-17T09:44:47.147Z,23.77
2018-10-17T09:47:15.915Z,25.20
2018-10-17T09:49:44.417Z,24.40
2018-10-17T09:52:13.649Z,24.85
2018-10-17T09:54:42.317Z,24.50
2018-10-17T09:57:11.037Z,24.45
2018-10-17T09:59:39.592Z,26.70
2018-10-17T10:02:08.236Z,26.75
2018-10-17T10:04:37.121Z,25.37
2018-10-17T10:07:05.940Z,26.00
2018-10-17T10:09:34.839Z,26.65
2018-10-17T10:12:04.625Z,24.80
2018-10-17T10:14:33.880Z,24.82
2018-10-17T10:17:02.576Z,24.85
2018-10-17T10:19:31.336Z,25.10
2018-10-17T10:22:00.067Z,25.48
2018-10-17T10:24:28.763Z,25.32
2018-10-17T10:26:57.383Z,26.77
2018-10-17T10:29:26.207Z,24.95
2018-10-17T10:31:54.895Z,27.37
2018-10-17T10:34:23.591Z,26.30
2018-10-17T10:36:52.343Z,25.20
2018-10-17T10:39:20.994Z,28.65
2018-10-17T10:41:49.603Z,27.93
2018-10-17T10:44:18.311Z,25.10
2018-10-17T10:46:46.915Z,26.35
2018-10-17T10:49:15.513Z,25.20
2018-10-17T10:51:44.345Z,25.50
2018-10-17T10:54:13.079Z,24.12
2018-10-17T10:56:42.135Z,24.60
2018-10-17T10:59:10.923Z,23.80
2018-10-17T11:01:39.434Z,22.60
2018-10-17T11:04:08.028Z,22.73
2018-10-17T11:06:36.703Z,23.47
2018-10-17T11:09:07.369Z,22.42
2018-10-17T11:11:35.922Z,23.22
2018-10-17T11:14:05.111Z,22.77
2018-10-17T11:16:33.498Z,23.90
2018-10-17T11:19:02.390Z,24.35
2018-10-17T11:21:31.264Z,23.10
2018-10-17T11:23:59.861Z,22.20
2018-10-17T11:26:28.399Z,23.00
2018-10-17T11:28:57.285Z,22.48
2018-10-17T11:31:25.904Z,21.20
2018-10-17T11:33:54.449Z,21.82
2018-10-17T11:36:23.167Z,21.80
2018-10-17T11:38:51.945Z,22.22
2018-10-17T11:41:20.603Z,22.00
2018-10-17T11:43:49.192Z,22.60
2018-10-17T11:46:17.793Z,21.82
2018-10-17T11:48:46.330Z,21.77
2018-10-17T11:51:15.245Z,22.65
2018-10-17T11:53:44.481Z,21.65
2018-10-17T11:56:13.252Z,21.30
2018-10-17T11:58:42.184Z,20.27
2018-10-17T12:01:11.084Z,20.17
2018-10-17T12:03:39.810Z,20.68
2018-10-17T12:06:09.069Z,20.52
2018-10-17T12:08:37.614Z,28.83
2018-10-17T12:11:06.880Z,19.57
2018-10-17T12:13:35.734Z,20.85
2018-10-17T12:16:04.342Z,20.62
2018-10-17T12:18:32.848Z,21.73
2018-10-17T12:21:01.592Z,20.50
2018-10-17T12:23:32.733Z,19.90
2018-10-17T12:26:03.369Z,18.00
2018-10-17T12:28:33.197Z,19.15
2018-10-17T12:31:02.006Z,18.80
2018-10-17T12:33:30.577Z,16.55
2018-10-17T12:35:59.952Z,16.45
2018-10-17T12:38:28.634Z,16.77
2018-10-17T12:40:57.574Z,15.35
2018-10-17T12:43:26.196Z,16.52
2018-10-17T12:45:54.846Z,15.70
2018-10-17T12:48:23.477Z,17.80
2018-10-17T12:50:52.135Z,17.15
2018-10-17T12:53:21.005Z,17.50
2018-10-17T12:55:50.806Z,16.65
2018-10-17T12:58:19.624Z,17.37
2018-10-17T13:00:48.498Z,16.45
2018-10-17T13:03:17.214Z,17.30
2018-10-17T13:05:45.838Z,16.45
2018-10-17T13:08:15.880Z,18.60
2018-10-17T13:10:45.237Z,20.30
2018-10-17T13:13:14.623Z,20.77
2018-10-17T13:15:43.457Z,20.55
2018-10-17T13:18:12.316Z,20.77
2018-10-17T13:20:41.151Z,19.98
2018-10-17T13:23:10.066Z,20.70
2018-10-17T13:25:39.234Z,20.77
2018-10-17T13:28:07.986Z,20.70
2018-10-17T13:30:36.689Z,21.87
2018-10-17T13:33:05.585Z,21.90
2018-10-17T13:35:34.162Z,21.73
2018-10-17T13:38:03.526Z,19.92
2018-10-17T13:40:33.151Z,21.20
2018-10-17T13:43:02.387Z,22.15
2018-10-17T13:45:31.108Z,22.98
2018-10-17T13:47:59.982Z,22.65
2018-10-17T13:50:28.736Z,22.60
2018-10-17T13:52:57.492Z,22.95
2018-10-17T13:55:26.876Z,26.23
2018-10-17T13:57:55.659Z,26.90
2018-10-17T14:00:24.247Z,22.70
2018-10-17T14:02:53.436Z,22.17
2018-10-17T14:05:22.132Z,22.75
2018-10-17T14:07:51.695Z,22.20
2018-10-17T14:10:20.432Z,22.85
2018-10-17T14:12:49.149Z,24.20
2018-10-17T14:15:18.084Z,22.95
2018-10-17T14:17:46.644Z,22.20
2018-10-17T14:20:15.364Z,21.82
2018-10-17T14:22:44.130Z,22.95
2018-10-17T14:25:12.957Z,23.10
2018-10-17T14:27:41.917Z,24.10
2018-10-17T14:30:10.904Z,22.55
2018-10-17T14:32:39.736Z,23.55
2018-10-17T14:35:10.480Z,23.67
2018-10-17T14:37:39.850Z,23.12
2018-10-17T14:40:08.476Z,22.00
2018-10-17T14:42:37.210Z,23.20
2018-10-17T14:45:07.326Z,22.60
2018-10-17T14:47:35.990Z,22.75
2018-10-17T14:50:04.693Z,22.50
2018-10-17T14:52:34.318Z,23.02
2018-10-17T14:55:03.237Z,23.07
2018-10-17T14:57:32.026Z,22.13
2018-10-17T15:00:00.692Z,22.05
2018-10-17T15:02:29.378Z,23.00
2018-10-17T15:04:59.426Z,21.80
2018-10-17T15:07:28.243Z,22.60
2018-10-17T15:09:56.953Z,22.70
2018-10-17T15:12:25.664Z,21.62
2018-10-17T15:14:54.578Z,22.25
2018-10-17T15:17:23.609Z,21.57
2018-10-17T15:19:52.387Z,22.58
2018-10-17T15:22:21.025Z,24.35
2018-10-17T15:24:49.794Z,21.65
2018-10-17T15:27:18.565Z,22.62
2018-10-17T15:29:47.489Z,21.40
2018-10-17T15:32:16.117Z,21.82
2018-10-17T15:34:44.737Z,23.25
2018-10-17T15:37:13.478Z,24.07
2018-10-17T15:39:42.143Z,21.50
2018-10-17T15:42:11.134Z,22.75
2018-10-17T15:44:39.814Z,22.40
2018-10-17T15:47:09.277Z,22.13
2018-10-17T15:49:38.153Z,22.05
2018-10-17T15:52:07.097Z,23.25
2018-10-17T15:54:35.798Z,23.55
2018-10-17T15:57:05.600Z,21.35
2018-10-17T15:59:34.444Z,22.42
2018-10-17T16:02:03.018Z,22.85
2018-10-17T16:04:31.682Z,22.48
2018-10-17T16:07:00.356Z,23.45
2018-10-17T16:09:29.302Z,21.95
2018-10-17T16:11:58.150Z,22.48
2018-10-17T16:14:26.996Z,22.65
2018-10-17T16:16:55.826Z,23.00
2018-10-17T16:19:24.788Z,22.27
2018-10-17T16:21:53.824Z,21.12
2018-10-17T16:24:22.737Z,22.40
2018-10-17T16:26:51.845Z,22.30
2018-10-17T16:29:21.553Z,23.38
2018-10-17T16:31:50.550Z,22.90
2018-10-17T16:34:19.318Z,21.90
2018-10-17T16:36:48.611Z,21.95
2018-10-17T16:39:19.034Z,22.40
2018-10-17T16:41:47.817Z,22.85
2018-10-17T16:44:16.880Z,22.70
2018-10-17T16:46:47.737Z,22.35
2018-10-17T16:49:19.567Z,23.95
2018-10-17T16:51:49.900Z,24.02
2018-10-17T16:54:20.135Z,20.80
2018-10-17T16:56:49.823Z,20.92
2018-10-17T16:59:19.236Z,22.62
2018-10-17T17:01:48.793Z,23.10
2018-10-17T17:04:19.806Z,24.15
2018-10-17T17:06:49.026Z,22.10
2018-10-17T17:09:19.230Z,22.17
2018-10-17T17:11:49.021Z,22.75
2018-10-17T17:14:18.878Z,22.85
2018-10-17T17:16:48.201Z,22.52
2018-10-17T17:19:18.451Z,22.30
2018-10-17T17:21:48.369Z,23.92
2018-10-17T17:24:18.384Z,21.80
2018-10-17T17:26:49.519Z,23.05
2018-10-17T17:29:21.381Z,22.52
2018-10-17T17:32:03.550Z,24.12
2018-10-17T17:34:39.440Z,23.38
2018-10-17T17:37:10.461Z,22.55
2018-10-17T17:39:43.673Z,24.32
2018-10-17T17:42:14.663Z,22.73
2018-10-17T17:44:44.468Z,23.50
2018-10-17T17:47:16.318Z,23.12
2018-10-17T17:49:45.651Z,24.45
2018-10-17T17:52:15.146Z,22.90
2018-10-17T17:54:44.735Z,23.10
2018-10-17T17:57:16.462Z,22.73
2018-10-17T17:59:45.611Z,22.77
2018-10-17T18:02:14.855Z,25.10
2018-10-17T18:04:44.067Z,27.50
2018-10-17T18:07:13.613Z,31.55
2018-10-17T18:09:42.595Z,25.68
2018-10-17T18:12:11.935Z,24.12
2018-10-17T18:14:41.427Z,26.55
2018-10-17T18:17:10.524Z,24.00
2018-10-17T18:19:39.526Z,25.20
2018-10-17T18:22:08.744Z,24.80
2018-10-17T18:24:37.795Z,26.55
2018-10-17T18:27:07.903Z,25.52
2018-10-17T18:29:37.175Z,26.02
2018-10-17T18:32:07.340Z,28.30
2018-10-17T18:34:36.241Z,26.20
2018-10-17T18:37:05.817Z,29.52
2018-10-17T18:39:34.886Z,30.52
2018-10-17T18:42:04.017Z,29.02
2018-10-17T18:44:34.464Z,31.68
2018-10-17T18:47:05.166Z,28.35
2018-10-17T18:49:34.200Z,29.65
2018-10-17T18:52:03.269Z,34.70
2018-10-17T18:54:32.303Z,32.33
2018-10-17T18:57:01.296Z,31.68
2018-10-17T18:59:30.452Z,34.60
2018-10-17T19:01:59.678Z,35.40
2018-10-17T19:04:28.734Z,33.28
2018-10-17T19:06:57.646Z,40.05
2018-10-17T19:09:26.883Z,38.38
2018-10-17T19:11:56.113Z,38.85
2018-10-17T19:14:25.000Z,39.92
2018-10-17T19:16:55.703Z,38.63
2018-10-17T19:19:25.212Z,38.90
2018-10-17T19:21:55.115Z,41.68
2018-10-17T19:24:24.085Z,39.60
2018-10-17T19:26:53.445Z,40.43
2018-10-17T19:29:23.526Z,43.90
2018-10-17T19:31:52.564Z,40.80
2018-10-17T19:34:21.803Z,45.10
2018-10-17T19:36:50.577Z,47.38
2018-10-17T19:39:19.527Z,42.40
2018-10-17T19:41:48.138Z,42.08
2018-10-17T19:44:16.789Z,45.70
2018-10-17T19:46:45.640Z,45.30
2018-10-17T19:49:14.884Z,40.15
2018-10-17T19:51:43.752Z,46.60
2018-10-17T19:54:12.506Z,44.65
2018-10-17T19:56:41.231Z,43.33
2018-10-17T19:59:10.204Z,43.17
2018-10-17T20:01:39.082Z,47.93
2018-10-17T20:04:07.973Z,47.38
2018-10-17T20:06:36.686Z,45.35
2018-10-17T20:09:08.563Z,47.88
2018-10-17T20:11:37.330Z,50.98
2018-10-17T20:14:07.571Z,49.60
2018-10-17T20:16:37.244Z,51.15
2018-10-17T20:19:07.271Z,52.35
2018-10-17T20:21:36.609Z,52.90
2018-10-17T20:24:05.681Z,55.30
2018-10-17T20:26:34.790Z,54.00
2018-10-17T20:29:05.155Z,55.88
2018-10-17T20:31:35.693Z,57.62
2018-10-17T20:34:06.135Z,60.25
2018-10-17T20:36:35.470Z,54.40
2018-10-17T20:39:07.921Z,58.58
2018-10-17T20:41:36.976Z,62.13
2018-10-17T20:44:07.024Z,60.70
2018-10-17T20:46:36.062Z,63.52
2018-10-17T20:49:05.967Z,62.78
2018-10-17T20:51:35.794Z,64.75
2018-10-17T20:54:05.241Z,65.83
2018-10-17T20:56:34.754Z,63.38
2018-10-17T20:59:03.865Z,66.80
2018-10-17T21:01:33.514Z,68.80
2018-10-17T21:04:02.462Z,69.27
2018-10-17T21:06:32.075Z,67.60
2018-10-17T21:09:02.520Z,68.87
2018-10-17T21:11:33.745Z,68.65
2018-10-17T21:14:03.105Z,67.97
2018-10-17T21:16:32.714Z,72.50
2018-10-17T21:21:44.794Z,71.55
2018-10-17T21:24:14.186Z,73.45
2018-10-17T21:26:43.848Z,76.77
2018-10-17T21:29:12.493Z,75.32
2018-10-17T21:31:41.115Z,70.62
2018-10-17T21:34:09.867Z,73.65
2018-10-17T21:36:38.502Z,70.57
2018-10-17T21:39:10.781Z,74.87
2018-10-17T21:41:39.442Z,80.12
2018-10-17T21:44:09.244Z,74.92
2018-10-17T21:46:38.669Z,74.45
2018-10-17T21:49:08.268Z,74.95
2018-10-17T21:51:37.771Z,78.37
2018-10-17T21:54:06.987Z,75.15
2018-10-17T21:56:35.807Z,72.97
2018-10-17T21:59:04.452Z,79.53
2018-10-17T22:01:33.045Z,76.97
2018-10-17T22:04:01.872Z,73.52
2018-10-17T22:06:30.553Z,73.25
2018-10-17T22:08:59.140Z,72.12
2018-10-17T22:11:28.349Z,76.57
2018-10-17T22:13:57.200Z,77.30
2018-10-17T22:16:31.109Z,76.72
2018-10-17T22:18:59.812Z,76.87
2018-10-17T22:21:28.396Z,79.27
2018-10-17T22:23:57.024Z,78.50
2018-10-17T22:26:25.631Z,74.53
2018-10-17T22:28:54.397Z,76.28
2018-10-17T22:31:22.935Z,77.17
2018-10-17T22:33:51.599Z,77.80
2018-10-17T22:36:20.357Z,79.80
2018-10-17T22:38:49.031Z,76.72
2018-10-17T22:41:18.061Z,76.85
2018-10-17T22:43:46.732Z,78.00
2018-10-17T22:46:15.377Z,78.50
2018-10-17T22:48:44.869Z,74.40
2018-10-17T22:51:13.580Z,71.87
2018-10-17T22:53:42.348Z,72.03
2018-10-17T22:56:11.051Z,67.62
2018-10-17T22:58:41.227Z,72.97
2018-10-17T23:01:09.955Z,70.92
2018-10-17T23:03:38.714Z,72.40
2018-10-17T23:06:07.547Z,69.77
2018-10-17T23:08:36.277Z,65.60
2018-10-17T23:11:05.495Z,71.45
2018-10-17T23:13:34.663Z,63.90
2018-10-17T23:16:03.454Z,63.78
2018-10-17T23:18:32.089Z,67.15
2018-10-17T23:21:00.679Z,64.25
2018-10-17T23:23:29.329Z,64.97
2018-10-17T23:25:58.107Z,61.95
2018-10-17T23:28:27.024Z,68.80
2018-10-17T23:30:56.497Z,61.60
2018-10-17T23:33:25.217Z,61.28
2018-10-17T23:35:54.295Z,64.07
2018-10-17T23:38:22.911Z,61.25
2018-10-17T23:40:52.458Z,62.30
2018-10-17T23:43:21.718Z,59.83
2018-10-17T23:45:50.293Z,58.98
2018-10-17T23:48:19.024Z,60.73
2018-10-17T23:50:47.851Z,56.75
2018-10-17T23:53:17.117Z,56.80
2018-10-17T23:55:46.576Z,60.65
2018-10-17T23:58:15.377Z,56.50
